Air Navigation Services of Czech Republic
Airport: LKKV Updated:  15.09.2019 22:00:26  UTC
 METAR LKKV 15.09. 22:00 ...
METAR LKKV 152200Z 26006KT CAVOK 16/10 Q1021 RMK REG QNH 1018=
 TAF LKKV 15.09. 17:00 ...
TAF LKKV 151700Z 1518/1700 26006KT CAVOK      BECMG 1610/1612 9999 SCT030      BECMG 1612/1614 9999 BKN040      TEMPO 1616/1700 7000 -RA BKN025      PROB30 TEMPO 1619/1700 3000 RA BR BKN012=